Time;durP1;ratioP1;P1;durP2;ratioP2;P2;SDS_P1;SDS_P2;PMS_P1;PMS_P2;Temp;Humidity;BMP_temperature;BMP_pressure;BME280_temperature;BME280_humidity;BME280_pressure;Samples;Min_cycle;Max_cycle;Signal;HPM_P1;HPM_P2
2023/05/01 00:01:32;;;;;;;11.90;6.25;;;;;;;;;;5079643;28;20248;-72
2023/05/01 00:03:58;;;;;;;10.32;6.25;;;;;;;;;;5076410;28;20044;-73
2023/05/01 00:06:23;;;;;;;10.52;6.60;;;;;;;;;;5083686;28;20035;-73
2023/05/01 00:08:48;;;;;;;11.05;7.05;;;;;;;;;;5089578;28;20596;-73
2023/05/01 00:11:14;;;;;;;10.70;6.90;;;;;;;;;;5080724;28;20036;-72
2023/05/01 00:13:40;;;;;;;11.60;7.13;;;;;;;;;;5090805;28;20020;-73
2023/05/01 00:16:12;;;;;;;10.90;6.88;;;;;;;;;;5087486;28;20032;-73
2023/05/01 00:18:38;;;;;;;11.52;6.82;;;;;;;;;;5087720;28;20039;-73
2023/05/01 00:21:04;;;;;;;9.23;6.03;;;;;;;;;;5086983;28;20051;-73
2023/05/01 00:23:29;;;;;;;12.55;7.20;;;;;;;;;;5087716;28;20040;-73
2023/05/01 00:25:54;;;;;;;10.05;6.70;;;;;;;;;;5082989;28;20038;-73
2023/05/01 00:28:20;;;;;;;12.00;7.03;;;;;;;;;;5089350;28;20027;-72
2023/05/01 00:30:45;;;;;;;14.13;7.85;;;;;;;;;;5088664;28;20036;-73
2023/05/01 00:33:11;;;;;;;15.38;8.27;;;;;;;;;;5087859;28;20055;-72
2023/05/01 00:35:37;;;;;;;12.27;8.38;;;;;;;;;;5088894;28;20038;-72
2023/05/01 00:38:02;;;;;;;11.73;7.63;;;;;;;;;;5075258;28;20123;-72
2023/05/01 00:40:27;;;;;;;14.98;7.20;;;;;;;;;;5082942;28;20179;-73
2023/05/01 00:42:53;;;;;;;12.50;8.32;;;;;;;;;;5089025;28;20044;-73
2023/05/01 00:45:19;;;;;;;14.30;7.65;;;;;;;;;;5086516;28;20044;-73
2023/05/01 00:47:45;;;;;;;11.48;7.18;;;;;;;;;;5088752;28;20028;-73
2023/05/01 00:50:11;;;;;;;12.13;7.15;;;;;;;;;;5088191;28;20523;-72
2023/05/01 00:52:38;;;;;;;12.43;7.93;;;;;;;;;;5091552;28;20604;-73
2023/05/01 00:55:04;;;;;;;12.52;7.95;;;;;;;;;;5097040;28;20122;-73
2023/05/01 00:57:29;;;;;;;13.75;8.10;;;;;;;;;;5088157;28;20051;-73
2023/05/01 00:59:55;;;;;;;12.93;7.35;;;;;;;;;;5082040;28;20123;-73
2023/05/01 01:02:20;;;;;;;14.05;7.68;;;;;;;;;;5085490;28;20040;-73
2023/05/01 01:04:47;;;;;;;10.95;6.63;;;;;;;;;;5087643;28;20505;-73
2023/05/01 01:07:26;;;;;;;12.55;7.82;;;;;;;;;;5087919;28;20450;-73
2023/05/01 01:10:09;;;;;;;12.93;7.85;;;;;;;;;;5088582;28;20111;-73
2023/05/01 01:13:01;;;;;;;;;;;;;;;;;;5089888;28;20036;-73
2023/05/01 01:15:44;;;;;;;10.27;6.70;;;;;;;;;;5087525;28;19915;-73
2023/05/01 01:18:17;;;;;;;12.80;6.80;;;;;;;;;;5088763;28;20131;-73
2023/05/01 01:20:43;;;;;;;;;;;;;;;;;;5090000;28;20044;-73
2023/05/01 01:23:51;;;;;;;10.30;6.80;;;;;;;;;;5087823;28;19916;-73
2023/05/01 01:26:38;;;;;;;11.60;6.85;;;;;;;;;;5089082;28;20031;-73
2023/05/01 01:29:15;;;;;;;13.73;7.25;;;;;;;;;;5082024;28;20024;-72
2023/05/01 01:31:44;;;;;;;12.35;7.50;;;;;;;;;;5074193;28;20031;-73
2023/05/01 01:34:13;;;;;;;12.85;7.88;;;;;;;;;;5088386;28;20044;-73
2023/05/01 01:36:48;;;;;;;13.38;7.35;;;;;;;;;;5087055;28;20127;-73
2023/05/01 01:39:43;;;;;;;10.80;7.05;;;;;;;;;;5088159;28;20052;-73
2023/05/01 01:42:15;;;;;;;11.18;7.40;;;;;;;;;;5077590;28;20044;-73
2023/05/01 01:44:54;;;;;;;13.30;7.38;;;;;;;;;;5087862;28;20123;-73
2023/05/01 01:47:25;;;;;;;12.43;6.82;;;;;;;;;;5088162;28;20028;-73
2023/05/01 01:49:52;;;;;;;12.40;7.93;;;;;;;;;;5087510;28;20062;-72
2023/05/01 01:52:20;;;;;;;12.40;7.38;;;;;;;;;;5088072;28;20028;-72
2023/05/01 01:54:51;;;;;;;10.75;7.07;;;;;;;;;;5087640;28;20047;-73
2023/05/01 01:57:19;;;;;;;9.63;7.13;;;;;;;;;;5085819;28;20058;-73
2023/05/01 01:59:46;;;;;;;14.55;7.55;;;;;;;;;;5081649;28;20059;-72
2023/05/01 02:02:14;;;;;;;10.75;6.80;;;;;;;;;;5067216;28;20051;-72
2023/05/01 02:04:41;;;;;;;12.80;7.68;;;;;;;;;;5082916;28;20032;-73
2023/05/01 02:07:10;;;;;;;15.00;7.60;;;;;;;;;;5088075;28;20048;-73
2023/05/01 02:09:37;;;;;;;10.90;7.32;;;;;;;;;;5087163;28;20133;-73
2023/05/01 02:12:05;;;;;;;13.55;7.75;;;;;;;;;;5086146;28;20036;-73
2023/05/01 02:14:32;;;;;;;12.48;7.18;;;;;;;;;;5086513;28;20126;-73
2023/05/01 02:16:58;;;;;;;9.90;6.70;;;;;;;;;;5092816;28;20020;-73
2023/05/01 02:19:25;;;;;;;15.55;7.65;;;;;;;;;;5095912;28;20119;-72
2023/05/01 02:21:55;;;;;;;11.73;7.80;;;;;;;;;;5072447;28;20044;-72
2023/05/01 02:24:23;;;;;;;11.50;7.63;;;;;;;;;;5088229;28;20043;-73
2023/05/01 02:27:05;;;;;;;13.40;7.55;;;;;;;;;;5087597;28;20082;-73
2023/05/01 02:29:30;;;;;;;11.20;7.47;;;;;;;;;;5085051;28;20055;-72
2023/05/01 02:31:56;;;;;;;10.88;7.57;;;;;;;;;;5086151;28;20024;-72
2023/05/01 02:34:21;;;;;;;12.15;8.18;;;;;;;;;;5082932;28;20024;-73
2023/05/01 02:36:46;;;;;;;12.90;7.55;;;;;;;;;;5081858;28;20036;-72
2023/05/01 02:39:12;;;;;;;10.30;6.93;;;;;;;;;;5070098;28;20119;-73
2023/05/01 02:41:39;;;;;;;11.43;7.65;;;;;;;;;;5085682;28;20036;-73
2023/05/01 02:44:08;;;;;;;13.68;8.20;;;;;;;;;;5087025;28;20035;-73
2023/05/01 02:46:36;;;;;;;12.40;8.00;;;;;;;;;;5078790;28;20036;-73
2023/05/01 02:49:02;;;;;;;17.42;8.13;;;;;;;;;;5088090;28;20143;-72
2023/05/01 02:51:30;;;;;;;13.45;8.25;;;;;;;;;;5081115;28;20416;-72
2023/05/01 02:53:58;;;;;;;12.30;7.85;;;;;;;;;;5086669;28;20820;-73
2023/05/01 02:56:26;;;;;;;11.45;7.85;;;;;;;;;;5086559;28;20028;-72
2023/05/01 02:58:52;;;;;;;19.27;7.93;;;;;;;;;;5086470;28;20176;-72
2023/05/01 03:01:17;;;;;;;13.45;7.65;;;;;;;;;;5086832;28;20023;-72
2023/05/01 03:03:43;;;;;;;11.75;7.53;;;;;;;;;;5078540;28;20085;-72
2023/05/01 03:06:08;;;;;;;10.63;7.50;;;;;;;;;;5078806;28;20536;-72
2023/05/01 03:08:33;;;;;;;12.50;7.47;;;;;;;;;;5069421;28;20040;-73
2023/05/01 03:11:03;;;;;;;11.55;7.72;;;;;;;;;;5084573;28;20039;-72
2023/05/01 03:13:28;;;;;;;13.93;7.97;;;;;;;;;;5087329;28;20051;-73
2023/05/01 03:15:53;;;;;;;11.77;7.65;;;;;;;;;;5079945;28;20075;-73
2023/05/01 03:18:19;;;;;;;11.10;7.20;;;;;;;;;;5070462;28;20082;-72
2023/05/01 03:20:55;;;;;;;13.50;8.10;;;;;;;;;;5086751;28;20036;-73
2023/05/01 03:23:22;;;;;;;12.27;7.90;;;;;;;;;;5083060;28;20048;-72
2023/05/01 03:25:47;;;;;;;13.55;8.23;;;;;;;;;;5080747;28;20119;-72
2023/05/01 03:28:13;;;;;;;12.30;8.15;;;;;;;;;;5080235;28;20123;-73
2023/05/01 03:30:38;;;;;;;11.10;7.68;;;;;;;;;;5087069;28;20055;-72
2023/05/01 03:33:03;;;;;;;13.77;8.18;;;;;;;;;;5084872;28;20032;-72
2023/05/01 03:35:29;;;;;;;11.70;7.55;;;;;;;;;;5084263;28;20047;-72
2023/05/01 03:37:55;;;;;;;12.20;8.15;;;;;;;;;;5076454;28;20028;-72
2023/05/01 03:40:20;;;;;;;12.88;8.38;;;;;;;;;;5080001;28;20489;-72
2023/05/01 03:42:46;;;;;;;12.30;7.85;;;;;;;;;;5097056;28;20036;-73
2023/05/01 03:45:11;;;;;;;17.70;8.00;;;;;;;;;;5090523;28;20081;-73
2023/05/01 03:47:36;;;;;;;12.50;7.90;;;;;;;;;;5082048;28;20119;-72
2023/05/01 03:50:02;;;;;;;13.07;8.20;;;;;;;;;;5086776;28;20077;-72
2023/05/01 03:52:28;;;;;;;12.20;8.30;;;;;;;;;;5085914;28;20055;-72
2023/05/01 03:54:53;;;;;;;12.38;8.18;;;;;;;;;;5085834;28;20039;-73
2023/05/01 03:57:25;;;;;;;14.27;8.68;;;;;;;;;;5086135;28;20034;-72
2023/05/01 03:59:51;;;;;;;12.37;8.53;;;;;;;;;;5083958;28;20668;-73
2023/05/01 04:02:17;;;;;;;13.40;8.35;;;;;;;;;;5085683;28;20535;-72
2023/05/01 04:04:42;;;;;;;14.63;8.10;;;;;;;;;;5086324;28;20028;-72
2023/05/01 04:07:08;;;;;;;12.88;8.27;;;;;;;;;;5084492;28;20039;-72
2023/05/01 04:09:33;;;;;;;12.88;8.13;;;;;;;;;;5081613;28;20036;-72
2023/05/01 04:11:59;;;;;;;16.40;9.13;;;;;;;;;;5076187;28;20029;-72
2023/05/01 04:14:24;;;;;;;12.73;8.25;;;;;;;;;;5096797;28;20036;-73
2023/05/01 04:16:50;;;;;;;15.48;8.70;;;;;;;;;;5086823;28;20027;-72
2023/05/01 04:19:15;;;;;;;15.35;8.05;;;;;;;;;;5086325;28;20539;-72
2023/05/01 04:21:41;;;;;;;19.00;9.38;;;;;;;;;;5080664;28;20205;-72
2023/05/01 04:24:06;;;;;;;18.10;9.90;;;;;;;;;;5081701;28;20449;-72
2023/05/01 04:26:32;;;;;;;16.15;10.50;;;;;;;;;;5081461;28;20069;-73
2023/05/01 04:28:57;;;;;;;17.17;9.68;;;;;;;;;;5089528;28;20019;-73
2023/05/01 04:31:22;;;;;;;17.15;9.88;;;;;;;;;;5089938;28;20078;-73
2023/05/01 04:33:48;;;;;;;16.65;9.05;;;;;;;;;;5089229;28;20042;-72
2023/05/01 04:36:13;;;;;;;15.27;9.50;;;;;;;;;;5085236;28;20040;-73
2023/05/01 04:38:38;;;;;;;16.08;9.60;;;;;;;;;;5081222;28;20041;-72
2023/05/01 04:41:05;;;;;;;17.88;9.88;;;;;;;;;;5082227;28;20020;-72
2023/05/01 04:43:30;;;;;;;15.02;9.40;;;;;;;;;;5088347;28;20037;-73
2023/05/01 04:45:55;;;;;;;15.27;9.35;;;;;;;;;;5086862;28;20033;-72
2023/05/01 04:48:21;;;;;;;13.57;8.60;;;;;;;;;;5086431;28;20036;-73
2023/05/01 04:50:46;;;;;;;14.63;9.30;;;;;;;;;;5086517;28;20065;-72
2023/05/01 04:53:11;;;;;;;17.35;10.10;;;;;;;;;;5085432;28;20036;-72
2023/05/01 04:55:37;;;;;;;17.98;10.07;;;;;;;;;;5089335;28;20020;-72
2023/05/01 04:58:03;;;;;;;15.93;9.48;;;;;;;;;;5089031;28;20024;-73
2023/05/01 05:00:29;;;;;;;15.75;9.25;;;;;;;;;;5089222;28;20170;-72
2023/05/01 05:02:55;;;;;;;15.60;9.35;;;;;;;;;;5090704;28;20146;-72
2023/05/01 05:05:20;;;;;;;16.88;9.60;;;;;;;;;;5096841;28;20048;-73
2023/05/01 05:07:46;;;;;;;15.57;9.15;;;;;;;;;;5099836;28;20098;-73
2023/05/01 05:10:12;;;;;;;15.88;9.05;;;;;;;;;;5089594;28;20040;-73
2023/05/01 05:12:38;;;;;;;16.35;9.45;;;;;;;;;;5101364;28;20067;-72
2023/05/01 05:15:04;;;;;;;15.13;8.80;;;;;;;;;;5087685;28;20676;-73
2023/05/01 05:17:29;;;;;;;13.80;9.02;;;;;;;;;;5083876;28;20051;-73
2023/05/01 05:19:54;;;;;;;17.80;10.23;;;;;;;;;;5080772;28;20104;-72
2023/05/01 05:22:20;;;;;;;19.00;10.73;;;;;;;;;;5088127;28;20052;-72
2023/05/01 05:24:45;;;;;;;18.20;10.80;;;;;;;;;;5096710;28;20036;-72
2023/05/01 05:27:11;;;;;;;20.98;12.13;;;;;;;;;;5095050;28;20039;-72
2023/05/01 05:29:36;;;;;;;21.67;11.80;;;;;;;;;;5095413;28;20031;-73
2023/05/01 05:32:02;;;;;;;23.52;12.02;;;;;;;;;;5080901;28;20032;-72
2023/05/01 05:34:27;;;;;;;21.27;12.43;;;;;;;;;;5087365;28;20499;-72
2023/05/01 05:36:53;;;;;;;26.08;13.68;;;;;;;;;;5088042;28;20480;-72
2023/05/01 05:39:21;;;;;;;24.63;14.32;;;;;;;;;;5073594;28;20032;-72
2023/05/01 05:41:48;;;;;;;29.63;14.70;;;;;;;;;;5074100;28;20043;-72
2023/05/01 05:44:13;;;;;;;24.95;13.35;;;;;;;;;;5084418;28;20100;-72
2023/05/01 05:46:38;;;;;;;29.35;15.18;;;;;;;;;;5085484;28;20889;-73
2023/05/01 05:49:04;;;;;;;29.48;14.95;;;;;;;;;;5087059;28;20032;-72
2023/05/01 05:51:30;;;;;;;24.50;14.30;;;;;;;;;;5088026;28;20024;-72
2023/05/01 05:53:55;;;;;;;28.63;14.85;;;;;;;;;;5086000;28;20132;-72
2023/05/01 05:56:21;;;;;;;29.88;16.65;;;;;;;;;;5087620;28;20119;-72
2023/05/01 05:58:47;;;;;;;36.10;17.92;;;;;;;;;;5087468;28;20044;-72
2023/05/01 06:01:13;;;;;;;33.15;17.20;;;;;;;;;;5080228;28;20066;-72
2023/05/01 06:03:39;;;;;;;34.45;17.95;;;;;;;;;;5085570;28;20060;-73
2023/05/01 06:06:05;;;;;;;37.80;18.33;;;;;;;;;;5087612;28;20067;-72
2023/05/01 06:08:31;;;;;;;37.38;18.85;;;;;;;;;;5088233;28;20032;-72
2023/05/01 06:10:57;;;;;;;40.25;19.98;;;;;;;;;;5086125;28;20042;-72
2023/05/01 06:13:23;;;;;;;39.78;19.15;;;;;;;;;;5086282;28;20028;-72
2023/05/01 06:15:49;;;;;;;40.05;20.45;;;;;;;;;;5086921;28;20119;-72
2023/05/01 06:18:14;;;;;;;41.30;20.70;;;;;;;;;;5084235;28;20032;-72
2023/05/01 06:20:40;;;;;;;40.78;21.50;;;;;;;;;;5069724;28;20096;-72
2023/05/01 06:23:07;;;;;;;43.30;22.70;;;;;;;;;;5087885;28;20024;-72
2023/05/01 06:25:32;;;;;;;47.92;22.70;;;;;;;;;;5088773;28;20050;-72
2023/05/01 06:27:58;;;;;;;44.05;21.92;;;;;;;;;;5094828;28;20517;-73
2023/05/01 06:30:23;;;;;;;45.53;22.67;;;;;;;;;;5100597;28;20040;-72
2023/05/01 06:32:48;;;;;;;49.50;23.10;;;;;;;;;;5083620;28;20425;-72
2023/05/01 06:35:14;;;;;;;43.22;22.73;;;;;;;;;;5082723;28;20110;-72
2023/05/01 06:37:39;;;;;;;46.83;23.23;;;;;;;;;;5087459;28;20032;-73
2023/05/01 06:40:06;;;;;;;46.13;22.20;;;;;;;;;;5073764;28;20028;-72
2023/05/01 06:42:32;;;;;;;45.45;23.73;;;;;;;;;;5086078;28;20036;-73
2023/05/01 06:44:57;;;;;;;48.53;23.42;;;;;;;;;;5081439;28;20039;-72
2023/05/01 06:47:23;;;;;;;45.17;23.05;;;;;;;;;;5086321;28;20052;-72
2023/05/01 06:49:48;;;;;;;52.53;22.85;;;;;;;;;;5085980;28;20741;-72
2023/05/01 06:52:13;;;;;;;50.95;24.27;;;;;;;;;;5085648;28;20519;-72
2023/05/01 06:54:39;;;;;;;51.75;23.90;;;;;;;;;;5079867;28;20040;-73
2023/05/01 06:57:04;;;;;;;51.95;23.58;;;;;;;;;;5086603;28;20044;-73
2023/05/01 06:59:29;;;;;;;54.35;26.20;;;;;;;;;;5081128;28;20048;-72
2023/05/01 07:01:55;;;;;;;50.53;25.05;;;;;;;;;;5078352;28;20052;-72
2023/05/01 07:04:20;;;;;;;45.20;22.40;;;;;;;;;;5064367;28;20738;-72
2023/05/01 07:06:46;;;;;;;47.17;23.30;;;;;;;;;;5060729;28;20130;-72
2023/05/01 07:09:12;;;;;;;45.78;23.33;;;;;;;;;;5078627;28;20032;-72
2023/05/01 07:11:38;;;;;;;49.95;24.13;;;;;;;;;;5074665;28;20043;-72
2023/05/01 07:14:03;;;;;;;47.10;21.77;;;;;;;;;;5071393;28;20028;-72
2023/05/01 07:16:29;;;;;;;46.58;24.38;;;;;;;;;;5076554;28;20028;-72
2023/05/01 07:18:54;;;;;;;46.60;21.48;;;;;;;;;;5081011;28;20920;-72
2023/05/01 07:21:19;;;;;;;45.38;23.48;;;;;;;;;;5091468;28;20051;-72
2023/05/01 07:23:45;;;;;;;50.88;24.02;;;;;;;;;;5085387;28;20043;-72
2023/05/01 07:26:10;;;;;;;51.63;25.30;;;;;;;;;;5085046;28;20028;-72
2023/05/01 07:28:36;;;;;;;46.00;23.08;;;;;;;;;;5084380;28;20044;-72
2023/05/01 07:31:01;;;;;;;51.08;24.00;;;;;;;;;;5078292;28;20028;-71
2023/05/01 07:33:27;;;;;;;51.60;25.35;;;;;;;;;;5064099;28;20051;-73
2023/05/01 07:35:52;;;;;;;50.20;24.60;;;;;;;;;;5074990;28;20513;-72
2023/05/01 07:38:18;;;;;;;45.38;22.38;;;;;;;;;;5072163;28;20554;-73
2023/05/01 07:40:43;;;;;;;47.10;22.60;;;;;;;;;;5071989;28;20791;-73
2023/05/01 07:43:11;;;;;;;48.28;23.33;;;;;;;;;;5083629;28;20131;-73
2023/05/01 07:45:38;;;;;;;44.10;21.38;;;;;;;;;;5081468;28;20036;-73
2023/05/01 07:48:04;;;;;;;46.00;23.92;;;;;;;;;;5075691;28;20505;-72
2023/05/01 07:50:30;;;;;;;48.75;23.88;;;;;;;;;;5083802;28;20509;-73
2023/05/01 07:52:56;;;;;;;47.35;23.65;;;;;;;;;;5091382;28;20035;-73
2023/05/01 07:55:22;;;;;;;42.38;22.55;;;;;;;;;;5091583;28;20020;-73
2023/05/01 07:57:47;;;;;;;43.53;21.88;;;;;;;;;;5085424;28;20115;-73
2023/05/01 08:00:13;;;;;;;43.40;19.77;;;;;;;;;;5085411;28;20725;-73
2023/05/01 08:02:39;;;;;;;41.42;20.45;;;;;;;;;;5088019;28;20040;-73
2023/05/01 08:05:05;;;;;;;39.17;21.20;;;;;;;;;;5086070;28;20034;-73
2023/05/01 08:07:31;;;;;;;41.22;19.17;;;;;;;;;;5090344;28;20023;-73
2023/05/01 08:09:56;;;;;;;41.13;20.52;;;;;;;;;;5089505;28;20036;-73
2023/05/01 08:12:21;;;;;;;32.88;16.73;;;;;;;;;;5089803;28;20032;-73
2023/05/01 08:14:47;;;;;;;39.38;18.70;;;;;;;;;;5076429;28;20156;-73
2023/05/01 08:17:12;;;;;;;37.03;18.88;;;;;;;;;;5091058;28;20040;-73
2023/05/01 08:19:38;;;;;;;40.80;19.25;;;;;;;;;;5089871;28;20088;-73
2023/05/01 08:22:03;;;;;;;34.58;18.10;;;;;;;;;;5087555;28;20043;-73
2023/05/01 08:24:29;;;;;;;32.45;16.40;;;;;;;;;;5091291;28;20131;-72
2023/05/01 08:26:54;;;;;;;36.40;18.95;;;;;;;;;;5088722;28;20067;-73
2023/05/01 08:29:20;;;;;;;32.92;16.75;;;;;;;;;;5089167;28;20044;-71
2023/05/01 08:31:45;;;;;;;32.83;16.33;;;;;;;;;;5089789;28;20059;-73
2023/05/01 08:34:10;;;;;;;33.60;17.33;;;;;;;;;;5084847;28;20035;-72
2023/05/01 08:36:37;;;;;;;32.13;17.67;;;;;;;;;;5083824;28;20036;-74
2023/05/01 08:39:02;;;;;;;35.03;18.75;;;;;;;;;;5081404;28;20093;-74
2023/05/01 08:41:30;;;;;;;31.92;18.55;;;;;;;;;;5077733;28;20899;-73
2023/05/01 08:44:00;;;;;;;35.15;19.33;;;;;;;;;;5070642;28;20102;-73
2023/05/01 08:46:37;;;;;;;35.25;18.35;;;;;;;;;;5087984;28;20020;-73
2023/05/01 08:49:04;;;;;;;33.92;17.67;;;;;;;;;;5077288;28;20032;-73
2023/05/01 08:51:32;;;;;;;31.98;17.83;;;;;;;;;;5088845;28;20119;-73
2023/05/01 08:54:00;;;;;;;34.13;16.52;;;;;;;;;;5087299;28;20036;-73
2023/05/01 08:56:27;;;;;;;34.15;18.63;;;;;;;;;;5073176;28;20126;-74
2023/05/01 08:58:52;;;;;;;33.85;17.35;;;;;;;;;;5065713;28;20056;-74
2023/05/01 09:01:21;;;;;;;37.03;18.92;;;;;;;;;;5082860;28;20072;-74
2023/05/01 09:03:48;;;;;;;38.10;21.23;;;;;;;;;;5087887;28;20044;-74
2023/05/01 09:06:13;;;;;;;35.35;18.30;;;;;;;;;;5083573;28;20098;-73
2023/05/01 09:08:39;;;;;;;32.38;15.82;;;;;;;;;;5081340;28;20059;-72
2023/05/01 09:11:05;;;;;;;35.63;19.00;;;;;;;;;;5082320;28;20020;-73
2023/05/01 09:13:31;;;;;;;35.30;18.17;;;;;;;;;;5084220;28;20028;-73
2023/05/01 09:15:56;;;;;;;29.27;15.57;;;;;;;;;;5088531;28;20043;-73
2023/05/01 09:18:22;;;;;;;28.08;14.20;;;;;;;;;;5084453;28;20516;-73
2023/05/01 09:20:48;;;;;;;34.70;19.38;;;;;;;;;;5080232;28;20036;-73
2023/05/01 09:23:13;;;;;;;36.72;19.23;;;;;;;;;;5080789;28;20927;-73
2023/05/01 09:25:38;;;;;;;34.30;17.83;;;;;;;;;;5084095;28;20081;-73
2023/05/01 09:28:05;;;;;;;32.65;18.13;;;;;;;;;;5085928;28;20560;-73
2023/05/01 09:30:32;;;;;;;30.00;16.95;;;;;;;;;;5077568;28;20062;-73
2023/05/01 09:33:09;;;;;;;25.50;13.48;;;;;;;;;;5074765;28;20109;-73
2023/05/01 09:35:55;;;;;;;34.38;18.35;;;;;;;;;;5077088;28;20416;-73
2023/05/01 09:38:22;;;;;;;31.67;15.77;;;;;;;;;;5073697;28;20695;-73
2023/05/01 09:40:49;;;;;;;28.02;16.98;;;;;;;;;;5076850;28;20059;-74
2023/05/01 09:43:23;;;;;;;30.13;16.13;;;;;;;;;;5077523;28;20513;-73
2023/05/01 09:46:04;;;;;;;26.23;15.35;;;;;;;;;;5077535;28;20032;-73
2023/05/01 09:48:29;;;;;;;26.08;14.02;;;;;;;;;;5082007;28;20417;-73
2023/05/01 09:50:55;;;;;;;27.17;13.80;;;;;;;;;;5080271;28;20032;-73
2023/05/01 09:53:35;;;;;;;23.48;13.73;;;;;;;;;;5083000;28;20455;-73
2023/05/01 09:56:01;;;;;;;21.80;12.30;;;;;;;;;;5086692;28;20132;-73
2023/05/01 09:58:27;;;;;;;21.00;12.75;;;;;;;;;;5073786;28;20059;-73
2023/05/01 10:00:52;;;;;;;27.42;13.68;;;;;;;;;;5082516;28;20432;-74
2023/05/01 10:03:18;;;;;;;22.58;13.88;;;;;;;;;;5087249;28;20036;-74
2023/05/01 10:05:43;;;;;;;25.77;15.00;;;;;;;;;;5080337;28;20032;-73
2023/05/01 10:08:13;;;;;;;24.35;14.05;;;;;;;;;;5069309;28;20040;-73
2023/05/01 10:10:39;;;;;;;23.90;12.07;;;;;;;;;;5080208;28;20020;-73
2023/05/01 10:13:17;;;;;;;23.73;12.20;;;;;;;;;;5083091;28;20039;-73
2023/05/01 10:15:45;;;;;;;18.45;11.05;;;;;;;;;;5086890;28;20127;-73
2023/05/01 10:18:12;;;;;;;21.23;11.48;;;;;;;;;;5086298;28;20656;-73
2023/05/01 10:20:38;;;;;;;27.10;13.35;;;;;;;;;;5087767;28;20038;-74
2023/05/01 10:23:03;;;;;;;24.48;13.68;;;;;;;;;;5086996;28;20020;-73
2023/05/01 10:25:30;;;;;;;22.60;12.13;;;;;;;;;;5099804;28;20052;-74
2023/05/01 10:27:56;;;;;;;20.23;12.38;;;;;;;;;;5076276;28;20095;-73
2023/05/01 10:30:22;;;;;;;26.67;13.50;;;;;;;;;;5078026;28;20485;-73
2023/05/01 10:32:48;;;;;;;23.58;13.73;;;;;;;;;;5087511;28;20047;-73
2023/05/01 10:35:26;;;;;;;24.90;13.40;;;;;;;;;;5089183;28;20028;-74
2023/05/01 10:38:00;;;;;;;27.70;12.48;;;;;;;;;;5093007;28;20023;-73
2023/05/01 10:40:38;;;;;;;21.40;11.50;;;;;;;;;;5090214;28;20036;-73
2023/05/01 10:43:27;;;;;;;23.25;11.98;;;;;;;;;;5086977;28;20614;-73
2023/05/01 10:45:54;;;;;;;25.50;12.68;;;;;;;;;;5087057;28;20053;-74
2023/05/01 10:48:44;;;;;;;23.23;12.75;;;;;;;;;;5079952;28;20031;-73
2023/05/01 10:51:26;;;;;;;25.33;12.50;;;;;;;;;;5084553;28;20853;-73
2023/05/01 10:54:22;;;;;;;25.17;14.25;;;;;;;;;;5084833;28;20471;-73
2023/05/01 10:56:47;;;;;;;22.55;13.02;;;;;;;;;;5067444;28;20074;-73
2023/05/01 10:59:13;;;;;;;25.02;14.02;;;;;;;;;;5083757;28;20125;-73
2023/05/01 11:01:50;;;;;;;30.17;14.88;;;;;;;;;;5077594;28;20040;-73
2023/05/01 11:04:26;;;;;;;27.95;15.98;;;;;;;;;;5072793;28;20544;-73
2023/05/01 11:07:01;;;;;;;24.58;15.13;;;;;;;;;;5083512;28;20046;-73
2023/05/01 11:09:40;;;;;;;28.40;15.90;;;;;;;;;;5078901;28;20058;-74
2023/05/01 11:12:07;;;;;;;31.10;16.33;;;;;;;;;;5077838;28;20044;-73
2023/05/01 11:14:55;;;;;;;29.92;15.20;;;;;;;;;;5078770;28;20051;-73
2023/05/01 11:17:42;;;;;;;29.90;15.23;;;;;;;;;;5077107;28;20036;-73
2023/05/01 11:20:12;;;;;;;29.50;15.30;;;;;;;;;;5072672;28;20927;-73
2023/05/01 11:22:39;;;;;;;31.35;17.83;;;;;;;;;;5079985;28;20057;-73
2023/05/01 11:25:22;;;;;;;27.95;15.98;;;;;;;;;;5067421;28;20048;-73
2023/05/01 11:27:56;;;;;;;34.72;18.30;;;;;;;;;;5075488;28;20032;-73
2023/05/01 11:30:21;;;;;;;33.85;16.27;;;;;;;;;;5070449;28;20135;-73
2023/05/01 11:32:48;;;;;;;31.33;16.60;;;;;;;;;;5073150;28;20132;-73
2023/05/01 11:35:21;;;;;;;29.38;16.45;;;;;;;;;;5070341;28;20123;-73
2023/05/01 11:37:47;;;;;;;30.35;16.50;;;;;;;;;;5078302;28;20032;-73
2023/05/01 11:40:26;;;;;;;31.42;16.90;;;;;;;;;;5077747;28;20040;-73
2023/05/01 11:43:00;;;;;;;30.13;17.23;;;;;;;;;;5079536;28;20085;-74
2023/05/01 11:45:26;;;;;;;32.10;18.50;;;;;;;;;;5085497;28;20608;-73
2023/05/01 11:47:52;;;;;;;31.85;18.80;;;;;;;;;;5075807;28;20040;-73
2023/05/01 11:50:17;;;;;;;32.50;19.75;;;;;;;;;;5079739;28;20097;-73
2023/05/01 11:52:52;;;;;;;32.70;18.85;;;;;;;;;;5078215;28;20390;-73
2023/05/01 11:55:18;;;;;;;35.38;19.95;;;;;;;;;;5076568;28;20436;-73
2023/05/01 11:57:53;;;;;;;34.10;19.02;;;;;;;;;;5079536;28;20512;-73
2023/05/01 12:00:26;;;;;;;29.60;17.13;;;;;;;;;;5081704;28;20048;-73
2023/05/01 12:02:59;;;;;;;30.52;16.02;;;;;;;;;;5089903;28;20036;-72
2023/05/01 12:05:27;;;;;;;33.67;18.65;;;;;;;;;;5076800;28;20032;-73
2023/05/01 12:08:08;;;;;;;35.97;18.60;;;;;;;;;;5083786;28;20503;-73
2023/05/01 12:10:35;;;;;;;33.35;19.52;;;;;;;;;;5085788;28;20048;-73
2023/05/01 12:13:02;;;;;;;29.70;14.80;;;;;;;;;;5080101;28;20126;-73
2023/05/01 12:15:28;;;;;;;28.20;17.38;;;;;;;;;;5070345;28;20029;-73
2023/05/01 12:17:54;;;;;;;27.00;15.75;;;;;;;;;;5082831;28;20036;-73
2023/05/01 12:20:51;;;;;;;28.10;16.00;;;;;;;;;;5078087;28;20047;-72
2023/05/01 12:23:18;;;;;;;30.85;15.75;;;;;;;;;;5067650;28;20048;-72
2023/05/01 12:25:45;;;;;;;22.33;12.93;;;;;;;;;;5076176;28;20559;-74
2023/05/01 12:28:17;;;;;;;28.23;15.80;;;;;;;;;;5074417;28;20044;-71
2023/05/01 12:30:44;;;;;;;27.10;15.25;;;;;;;;;;5077503;28;20793;-72
2023/05/01 12:33:12;;;;;;;27.40;15.55;;;;;;;;;;5082607;28;20028;-72
2023/05/01 12:35:39;;;;;;;29.77;14.65;;;;;;;;;;5083153;28;20028;-70
2023/05/01 12:38:17;;;;;;;24.27;13.23;;;;;;;;;;5084163;28;20016;-70
2023/05/01 12:40:54;;;;;;;27.48;15.05;;;;;;;;;;5080441;28;20097;-72
2023/05/01 12:43:20;;;;;;;24.88;15.00;;;;;;;;;;5084104;28;20032;-72
2023/05/01 12:45:51;;;;;;;27.98;15.80;;;;;;;;;;5082839;28;20108;-72
2023/05/01 12:48:17;;;;;;;29.02;16.23;;;;;;;;;;5084307;28;20062;-72
2023/05/01 12:50:43;;;;;;;29.58;14.77;;;;;;;;;;5082562;28;20125;-72
2023/05/01 12:53:09;;;;;;;22.35;13.52;;;;;;;;;;5088883;28;20121;-72
2023/05/01 12:55:48;;;;;;;23.90;13.45;;;;;;;;;;5082265;28;20102;-72
2023/05/01 12:58:15;;;;;;;30.90;15.43;;;;;;;;;;5085325;27;20044;-72
2023/05/01 13:00:51;;;;;;;28.13;16.92;;;;;;;;;;5073359;28;20185;-72
2023/05/01 13:03:26;;;;;;;27.20;15.18;;;;;;;;;;5078919;28;20119;-72
2023/05/01 13:05:58;;;;;;;26.38;14.52;;;;;;;;;;5087349;28;20470;-72
2023/05/01 13:08:26;;;;;;;25.15;14.57;;;;;;;;;;5084768;28;20036;-72
2023/05/01 13:10:56;;;;;;;27.27;15.57;;;;;;;;;;5079766;28;20057;-72
2023/05/01 13:13:39;;;;;;;28.77;17.05;;;;;;;;;;5082094;28;20077;-72
2023/05/01 13:16:05;;;;;;;29.80;17.63;;;;;;;;;;5087930;28;20534;-72
2023/05/01 13:18:48;;;;;;;27.45;15.20;;;;;;;;;;5087887;28;20039;-72
2023/05/01 13:21:15;;;;;;;26.38;16.10;;;;;;;;;;5089538;28;20448;-71
2023/05/01 13:23:50;;;;;;;29.45;15.27;;;;;;;;;;5097373;28;20036;-72
2023/05/01 13:26:15;;;;;;;33.03;16.52;;;;;;;;;;5095963;28;21101;-72
2023/05/01 13:28:45;;;;;;;28.92;16.17;;;;;;;;;;5092628;28;20024;-72
2023/05/01 13:31:14;;;;;;;28.45;16.52;;;;;;;;;;5085580;28;20343;-72
2023/05/01 13:33:42;;;;;;;26.75;16.33;;;;;;;;;;5085567;28;20066;-72
2023/05/01 13:36:13;;;;;;;27.77;15.93;;;;;;;;;;5086422;28;20536;-72
2023/05/01 13:38:50;;;;;;;28.80;16.85;;;;;;;;;;5079151;28;20033;-71
2023/05/01 13:41:20;;;;;;;24.83;14.60;;;;;;;;;;5069514;28;20570;-71
2023/05/01 13:43:50;;;;;;;27.42;14.77;;;;;;;;;;5082466;28;20450;-71
2023/05/01 13:46:18;;;;;;;23.48;13.60;;;;;;;;;;5065032;28;20857;-71
2023/05/01 13:48:44;;;;;;;21.73;13.63;;;;;;;;;;5073743;28;20541;-72
2023/05/01 13:51:13;;;;;;;18.00;11.27;;;;;;;;;;5078341;28;20047;-72
2023/05/01 13:53:39;;;;;;;13.60;9.70;;;;;;;;;;5081731;28;20687;-72
2023/05/01 13:56:07;;;;;;;18.13;10.85;;;;;;;;;;5074578;28;20039;-72
2023/05/01 13:58:33;;;;;;;15.15;9.90;;;;;;;;;;5072961;28;20075;-72
2023/05/01 14:00:58;;;;;;;11.35;8.35;;;;;;;;;;5075123;28;20127;-72
2023/05/01 14:03:24;;;;;;;11.95;6.75;;;;;;;;;;5077407;28;20089;-72
2023/05/01 14:05:49;;;;;;;11.00;7.07;;;;;;;;;;5075553;28;20173;-72
2023/05/01 14:08:15;;;;;;;14.90;8.82;;;;;;;;;;5084568;28;20038;-72
2023/05/01 14:10:40;;;;;;;17.55;9.85;;;;;;;;;;5086077;28;20042;-72
2023/05/01 14:13:06;;;;;;;15.73;10.07;;;;;;;;;;5085552;28;20127;-72
2023/05/01 14:15:35;;;;;;;13.98;9.05;;;;;;;;;;5076388;28;20561;-71
2023/05/01 14:18:04;;;;;;;13.38;8.57;;;;;;;;;;5080665;28;20024;-72
2023/05/01 14:20:30;;;;;;;15.07;9.90;;;;;;;;;;5075196;28;20472;-72
2023/05/01 14:22:55;;;;;;;14.27;9.23;;;;;;;;;;5084409;28;20711;-72
2023/05/01 14:25:24;;;;;;;21.15;13.82;;;;;;;;;;5079357;28;20043;-71
2023/05/01 14:27:50;;;;;;;17.60;10.57;;;;;;;;;;5065865;28;20039;-72
2023/05/01 14:30:25;;;;;;;20.67;12.32;;;;;;;;;;5072839;28;20044;-71